Global Endeavor — 3EOJ9 — position and weather

sailwx.info

Track history (hours):
 
Tides and Currents Weather Stations Pressure Air Temp Water Temp Dewpoint Dewpoint Depression Visibility Wind Speed Wind Dir Waves Ship Positions

Global Endeavor

Last reported at 2018-Jan-20 02:41 UTC. Time now 2018-Jan-20 05:36 UTC.
Position N 34°33' E 130°08'.

Length 175 m; draft 5.9 m.

Type: Cargo ship. MMSI: 356619000.

Date/timePositionNaut miles runAvg speedWind from/ knotsBaromVisibWave heightAir tempDewpointWater temp
2018-Jan-20 02:41N 34°33' E 130°08'312.9
2018-Jan-20 02:28N 34°31' E 130°05'612.9
2018-Jan-20 02:00N 34°27' E 130°00'1112.7
2018-Jan-20 01:09N 34°20' E 129°50'41712.4
2018-Jan-18 15:24N 31°06' E 122°32'510.7
2018-Jan-18 14:55N 31°06' E 122°26'4 8.2
2018-Jan-18 14:28N 31°06' E 122°21'510.7
2018-Jan-18 14:00N 31°07' E 122°16'712.8
2018-Jan-18 13:27N 31°12' E 122°09'614.0
2018-Jan-18 13:00N 31°14' E 122°03'814.9
2018-Jan-18 12:29N 31°16' E 121°54'2610.1
2018-Jan-18 09:51N 31°29' E 121°27'2 5.2
2018-Jan-18 09:30N 31°30' E 121°25'3 5.5
2018-Jan-18 09:00N 31°31' E 121°22'3 6.5
2018-Jan-18 08:30N 31°33' E 121°19'4 7.2
2018-Jan-18 08:00N 31°36' E 121°17'510.4
2018-Jan-18 07:29N 31°40' E 121°12'3 6.9
2018-Jan-18 07:00N 31°42' E 121°09'0 0.3
2018-Jan-18 06:29N 31°42' E 121°09'0 0.0
2018-Jan-18 05:56N 31°42' E 121°09'0 0.0
2018-Jan-18 05:29N 31°42' E 121°09'0 0.0
2018-Jan-18 04:53N 31°42' E 121°09'0 0.0
2018-Jan-18 04:23N 31°42' E 121°09'0 0.0
2018-Jan-18 03:35N 31°42' E 121°09'0 0.0
2018-Jan-18 02:35N 31°42' E 121°09'0 0.0
2018-Jan-18 02:17N 31°42' E 121°09'0 0.0
2018-Jan-18 01:47N 31°42' E 121°09'0 0.0
2018-Jan-18 01:23N 31°42' E 121°09'0 0.0
2018-Jan-18 00:59N 31°42' E 121°09'0 0.0
2018-Jan-17 23:59N 31°42' E 121°09'0 0.0
2018-Jan-17 23:29N 31°42' E 121°09'  
2018-Jan-12 15:00N 31°30' E 121°25'611.6
2018-Jan-12 14:29N 31°26' E 121°30'4 8.4
2018-Jan-12 14:00N 31°24' E 121°34'43 9.2
2018-Jan-12 09:20N 31°06' E 122°19'  
Track history (hours):
 
Tides and Currents Weather Stations Pressure Air Temp Water Temp Dewpoint Dewpoint Depression Visibility Wind Speed Wind Dir Waves Ship Positions

Global Endeavor

Last reported at 2018-Jan-20 02:41 UTC. Time now 2018-Jan-20 05:36 UTC.
Position N 34°33' E 130°08'.

Length 175 m; draft 5.9 m.

Type: Cargo ship. MMSI: 356619000.

Date/timePositionNaut miles runAvg speedWind from/ knotsBaromVisibWave heightAir tempDewpointWater temp
2018-Jan-20 02:41N 34°33' E 130°08'312.9
2018-Jan-20 02:28N 34°31' E 130°05'612.9
2018-Jan-20 02:00N 34°27' E 130°00'1112.7
2018-Jan-20 01:09N 34°20' E 129°50'41712.4
2018-Jan-18 15:24N 31°06' E 122°32'510.7
2018-Jan-18 14:55N 31°06' E 122°26'4 8.2
2018-Jan-18 14:28N 31°06' E 122°21'510.7
2018-Jan-18 14:00N 31°07' E 122°16'712.8
2018-Jan-18 13:27N 31°12' E 122°09'614.0
2018-Jan-18 13:00N 31°14' E 122°03'814.9
2018-Jan-18 12:29N 31°16' E 121°54'2610.1
2018-Jan-18 09:51N 31°29' E 121°27'2 5.2
2018-Jan-18 09:30N 31°30' E 121°25'3 5.5
2018-Jan-18 09:00N 31°31' E 121°22'3 6.5
2018-Jan-18 08:30N 31°33' E 121°19'4 7.2
2018-Jan-18 08:00N 31°36' E 121°17'510.4
2018-Jan-18 07:29N 31°40' E 121°12'3 6.9
2018-Jan-18 07:00N 31°42' E 121°09'0 0.3
2018-Jan-18 06:29N 31°42' E 121°09'0 0.0
2018-Jan-18 05:56N 31°42' E 121°09'0 0.0
2018-Jan-18 05:29N 31°42' E 121°09'0 0.0
2018-Jan-18 04:53N 31°42' E 121°09'0 0.0
2018-Jan-18 04:23N 31°42' E 121°09'0 0.0
2018-Jan-18 03:35N 31°42' E 121°09'0 0.0
2018-Jan-18 02:35N 31°42' E 121°09'0 0.0
2018-Jan-18 02:17N 31°42' E 121°09'0 0.0
2018-Jan-18 01:47N 31°42' E 121°09'0 0.0
2018-Jan-18 01:23N 31°42' E 121°09'0 0.0
2018-Jan-18 00:59N 31°42' E 121°09'0 0.0
2018-Jan-17 23:59N 31°42' E 121°09'0 0.0
2018-Jan-17 23:29N 31°42' E 121°09'  
2018-Jan-12 15:00N 31°30' E 121°25'611.6
2018-Jan-12 14:29N 31°26' E 121°30'4 8.4
2018-Jan-12 14:00N 31°24' E 121°34'43 9.2
2018-Jan-12 09:20N 31°06' E 122°19'  

Dump ship's entire track history